createdAt,value
2023-01-19T00:01:05.900Z,99032.03
2023-01-19T00:06:07.947Z,99035.41
2023-01-19T00:11:09.323Z,99036.72
2023-01-19T00:16:11.240Z,99020.22
2023-01-19T00:21:14.720Z,99009.94
2023-01-19T00:26:16.553Z,99018.09
2023-01-19T00:31:20.732Z,99005.03
2023-01-19T00:36:22.227Z,99047.13
2023-01-19T00:41:44.054Z,99031.28
2023-01-19T00:46:45.453Z,99056.47
2023-01-19T00:51:46.818Z,99052.22
2023-01-19T00:56:48.334Z,99048.78
2023-01-19T01:01:49.756Z,99057.78
2023-01-19T01:06:51.204Z,99055.53
2023-01-19T01:11:52.554Z,99061.34
2023-01-19T01:16:54.994Z,99066.91
2023-01-19T01:21:56.504Z,99062.03
2023-01-19T01:26:57.927Z,99066.56
2023-01-19T01:31:59.473Z,99056.63
2023-01-19T01:37:00.882Z,99077.19
2023-01-19T01:42:03.241Z,99067.81
2023-01-19T01:47:04.745Z,99076.22
2023-01-19T01:52:06.328Z,99071.03
2023-01-19T01:57:12.289Z,99079.72
2023-01-19T02:02:41.471Z,99046.13
2023-01-19T02:08:24.696Z,99079.47
2023-01-19T02:13:26.952Z,99045.56
2023-01-19T02:18:30.567Z,99078.88
2023-01-19T02:23:46.470Z,99077.38
2023-01-19T02:29:02.883Z,99091.09
2023-01-19T02:34:05.922Z,99092.16
2023-01-19T02:39:09.672Z,99087.66
2023-01-19T02:44:12.594Z,99084.16
2023-01-19T02:49:14.154Z,99089.22
2023-01-19T02:54:30.673Z,99064.56
2023-01-19T02:59:43.967Z,99074.69
2023-01-19T03:05:08.345Z,99068.06
2023-01-19T03:10:33.122Z,99070.34
2023-01-19T03:15:48.842Z,99061.50
2023-01-19T03:20:55.141Z,99048.88
2023-01-19T03:25:58.998Z,99040.84
2023-01-19T03:31:10.932Z,99065.41
2023-01-19T03:36:35.888Z,99065.72
2023-01-19T03:41:40.855Z,99056.34
2023-01-19T03:46:42.968Z,99064.94
2023-01-19T03:51:44.633Z,99063.75
2023-01-19T03:56:46.040Z,99077.63
2023-01-19T04:01:48.207Z,99082.69
2023-01-19T04:06:49.674Z,99061.66
2023-01-19T04:11:51.451Z,99093.63
2023-01-19T04:16:52.896Z,99095.16
2023-01-19T04:21:56.785Z,99072.03
2023-01-19T04:26:58.119Z,99077.94
2023-01-19T04:31:59.445Z,99083.47
2023-01-19T04:37:00.973Z,99066.81
2023-01-19T04:42:02.355Z,99079.28
2023-01-19T04:47:03.876Z,99078.28
2023-01-19T04:52:06.142Z,99083.06
2023-01-19T04:57:07.514Z,99059.78
2023-01-19T05:02:08.957Z,99037.09
2023-01-19T05:07:10.285Z,99062.66
2023-01-19T05:12:12.236Z,99069.75
2023-01-19T05:17:13.767Z,99093.63
2023-01-19T05:22:15.591Z,99091.59
2023-01-19T05:27:16.953Z,99087.03
2023-01-19T05:32:18.519Z,99098.69
2023-01-19T05:37:20.094Z,99091.41
2023-01-19T05:42:21.607Z,99095.50
2023-01-19T05:47:23.330Z,99120.28
2023-01-19T05:52:27.579Z,99110.50
2023-01-19T05:57:28.904Z,99107.13
2023-01-19T06:02:30.301Z,99107.13
2023-01-19T06:07:32.184Z,99136.06
2023-01-19T06:12:33.773Z,99136.28
2023-01-19T06:17:35.432Z,99136.06
2023-01-19T06:22:36.795Z,99127.50
2023-01-19T06:27:39.745Z,99120.19
2023-01-19T06:32:41.188Z,99119.44
2023-01-19T06:37:42.567Z,99133.19
2023-01-19T06:42:43.958Z,99139.41
2023-01-19T06:47:48.018Z,99141.03
2023-01-19T06:52:51.223Z,99142.50
2023-01-19T06:58:01.338Z,99147.91
2023-01-19T07:03:03.426Z,99131.22
2023-01-19T07:08:05.385Z,99142.59
2023-01-19T07:13:09.445Z,99153.19
2023-01-19T07:18:11.262Z,99150.31
2023-01-19T07:23:12.721Z,99155.41
2023-01-19T07:28:15.919Z,99160.75
2023-01-19T07:33:17.315Z,99152.00
2023-01-19T07:38:19.422Z,99177.97
2023-01-19T07:43:20.945Z,99181.31
2023-01-19T07:48:22.412Z,99182.56
2023-01-19T07:53:23.850Z,99144.56
2023-01-19T07:58:26.392Z,99185.63
2023-01-19T08:03:27.735Z,99168.84
2023-01-19T08:08:30.434Z,99180.50
2023-01-19T08:13:31.932Z,99169.53
2023-01-19T08:18:33.302Z,99162.97
2023-01-19T08:23:34.910Z,99187.56
2023-01-19T08:28:36.304Z,99178.84
2023-01-19T08:33:37.659Z,99189.53
2023-01-19T08:38:43.439Z,99186.63
2023-01-19T08:43:45.520Z,99195.91
2023-01-19T08:48:48.338Z,99188.69
2023-01-19T08:53:50.212Z,99192.44
2023-01-19T08:59:07.610Z,99180.22
2023-01-19T09:04:09.878Z,99194.72
2023-01-19T09:09:11.319Z,99205.19
2023-01-19T09:14:12.966Z,99202.06
2023-01-19T09:19:14.350Z,99204.81
2023-01-19T09:24:15.714Z,99207.75
2023-01-19T09:29:17.244Z,99215.06
2023-01-19T09:34:18.588Z,99218.22
2023-01-19T09:39:20.019Z,99195.72
2023-01-19T09:44:33.833Z,99205.25
2023-01-19T09:49:41.044Z,99203.78
2023-01-19T09:54:52.984Z,99196.72
2023-01-19T09:59:59.484Z,99210.59
2023-01-19T10:05:14.524Z,99208.97
2023-01-19T10:10:27.919Z,99185.94
2023-01-19T10:15:41.985Z,99209.75
2023-01-19T10:20:59.863Z,99206.44
2023-01-19T10:26:08.390Z,99207.84
2023-01-19T10:31:12.099Z,99212.53
2023-01-19T10:36:24.273Z,99200.13
2023-01-19T10:41:31.736Z,99199.22
2023-01-19T10:46:42.223Z,99198.84
2023-01-19T10:51:48.730Z,99216.28
2023-01-19T10:57:03.466Z,99213.44
2023-01-19T11:02:27.269Z,99207.53
2023-01-19T11:07:31.078Z,99204.81
2023-01-19T11:12:32.467Z,99204.56
2023-01-19T11:17:33.957Z,99196.88
2023-01-19T11:22:35.481Z,99203.38
2023-01-19T11:27:37.774Z,99206.06
2023-01-19T11:32:41.139Z,99193.44
2023-01-19T11:37:43.168Z,99195.97
2023-01-19T11:42:44.775Z,99185.69
2023-01-19T11:47:50.250Z,99197.03
2023-01-19T11:52:59.071Z,99193.47
2023-01-19T11:58:02.496Z,99188.31
2023-01-19T12:03:30.597Z,99198.41
2023-01-19T12:08:39.531Z,99210.47
2023-01-19T12:13:43.910Z,99206.19
2023-01-19T12:18:51.666Z,99199.97
2023-01-19T12:24:04.864Z,99212.81
2023-01-19T12:29:15.279Z,99208.41
2023-01-19T12:34:25.974Z,99206.19
2023-01-19T12:39:27.481Z,99217.00
2023-01-19T12:44:31.002Z,99205.09
2023-01-19T12:49:35.491Z,99203.94
2023-01-19T12:54:40.093Z,99211.66
2023-01-19T12:59:41.435Z,99211.94
2023-01-19T13:05:17.740Z,99212.13
2023-01-19T13:11:10.689Z,99207.19
2023-01-19T13:16:17.952Z,99209.19
2023-01-19T13:21:44.630Z,99208.84
2023-01-19T13:26:49.129Z,99212.03
2023-01-19T13:31:53.551Z,99212.94
2023-01-19T13:36:56.954Z,99215.25
2023-01-19T13:42:02.691Z,99218.63
2023-01-19T13:47:08.068Z,99223.28
2023-01-19T13:52:24.288Z,99232.44
2023-01-19T13:57:28.726Z,99234.81
2023-01-19T14:02:30.259Z,99225.38
2023-01-19T14:07:32.039Z,99237.50
2023-01-19T14:12:33.362Z,99238.13
2023-01-19T14:17:34.693Z,99243.28
2023-01-19T14:22:41.576Z,99247.28
2023-01-19T14:27:42.970Z,99256.31
2023-01-19T14:32:47.736Z,99267.47
2023-01-19T14:37:50.953Z,99271.22
2023-01-19T14:42:55.304Z,99278.06
2023-01-19T14:47:59.732Z,99283.13
2023-01-19T14:53:04.362Z,99283.66
2023-01-19T14:58:11.819Z,99293.00
2023-01-19T15:03:13.285Z,99267.56
2023-01-19T15:08:33.002Z,99278.16
2023-01-19T15:13:34.473Z,99296.34
2023-01-19T15:18:36.172Z,99292.66
2023-01-19T15:23:37.492Z,99289.66
2023-01-19T15:28:38.780Z,99279.53
2023-01-19T15:33:40.656Z,99292.38
2023-01-19T15:38:42.618Z,99310.94
2023-01-19T15:43:44.051Z,99308.13
2023-01-19T15:48:45.451Z,99307.47
2023-01-19T15:53:47.699Z,99310.91
2023-01-19T15:58:49.187Z,99316.56
2023-01-19T16:03:52.063Z,99315.16
2023-01-19T16:08:59.116Z,99331.75
2023-01-19T16:14:01.256Z,99329.13
2023-01-19T16:19:02.628Z,99329.69
2023-01-19T16:24:04.156Z,99288.78
2023-01-19T16:29:08.565Z,99327.25
2023-01-19T16:34:10.171Z,99335.88
2023-01-19T16:39:13.793Z,99338.50
2023-01-19T16:44:16.342Z,99309.25
2023-01-19T16:49:20.068Z,99314.47
2023-01-19T16:54:25.849Z,99348.63
2023-01-19T16:59:29.101Z,99327.44
2023-01-19T17:04:30.806Z,99341.13
2023-01-19T17:09:32.129Z,99342.16
2023-01-19T17:14:33.493Z,99355.41
2023-01-19T17:19:35.353Z,99354.47
2023-01-19T17:24:36.735Z,99342.47
2023-01-19T17:29:38.135Z,99355.94
2023-01-19T17:34:39.445Z,99343.88
2023-01-19T17:39:40.916Z,99372.47
2023-01-19T17:44:42.371Z,99376.41
2023-01-19T17:49:43.793Z,99358.78
2023-01-19T17:54:45.185Z,99360.56
2023-01-19T17:59:47.800Z,99363.84
2023-01-19T18:04:49.265Z,99352.22
2023-01-19T18:09:51.692Z,99371.25
2023-01-19T18:14:52.998Z,99376.44
2023-01-19T18:19:54.720Z,99379.91
2023-01-19T18:24:56.156Z,99382.31
2023-01-19T18:29:57.534Z,99379.22
2023-01-19T18:34:58.955Z,99391.41
2023-01-19T18:40:04.173Z,99386.34
2023-01-19T18:45:05.777Z,99384.84
2023-01-19T18:50:07.828Z,99395.94
2023-01-19T18:55:09.545Z,99397.63
2023-01-19T19:00:11.813Z,99398.94
2023-01-19T19:05:13.404Z,99382.41
2023-01-19T19:10:14.998Z,99398.94
2023-01-19T19:15:16.696Z,99395.00
2023-01-19T19:20:19.419Z,99405.81
2023-01-19T19:25:21.092Z,99400.56
2023-01-19T19:30:22.553Z,99391.34
2023-01-19T19:35:24.187Z,99404.75
2023-01-19T19:40:26.870Z,99412.72
2023-01-19T19:45:28.253Z,99424.75
2023-01-19T19:50:29.570Z,99423.72
2023-01-19T19:55:30.964Z,99414.81
2023-01-19T20:00:32.363Z,99430.69
2023-01-19T20:05:35.617Z,99417.34
2023-01-19T20:10:37.789Z,99431.22
2023-01-19T20:15:39.482Z,99428.97
2023-01-19T20:20:41.051Z,99419.41
2023-01-19T20:25:42.407Z,99410.59
2023-01-19T20:30:43.816Z,99433.28
2023-01-19T20:35:45.119Z,99437.41
2023-01-19T20:40:46.445Z,99426.13
2023-01-19T20:45:48.375Z,99430.59
2023-01-19T20:50:49.953Z,99445.81
2023-01-19T20:55:51.251Z,99438.28
2023-01-19T21:00:52.741Z,99427.22
2023-01-19T21:05:54.138Z,99408.31
2023-01-19T21:10:56.805Z,99468.69
2023-01-19T21:15:59.577Z,99464.47
2023-01-19T21:21:01.003Z,99472.41
2023-01-19T21:26:02.469Z,99470.69
2023-01-19T21:31:12.873Z,99478.56
2023-01-19T21:36:14.210Z,99477.81
2023-01-19T21:41:16.263Z,99470.00
2023-01-19T21:46:29.126Z,99490.16
2023-01-19T21:51:34.696Z,99488.91
2023-01-19T21:56:38.353Z,99495.94
2023-01-19T22:01:39.831Z,99503.47
2023-01-19T22:06:41.347Z,99501.19
2023-01-19T22:11:42.811Z,99482.34
2023-01-19T22:16:44.159Z,99521.06
2023-01-19T22:21:45.524Z,99519.22
2023-01-19T22:26:50.038Z,99509.06
2023-01-19T22:31:52.384Z,99521.69
2023-01-19T22:36:53.855Z,99529.38
2023-01-19T22:41:55.745Z,99532.19
2023-01-19T22:46:57.174Z,99521.94
2023-01-19T22:51:58.559Z,99529.41
2023-01-19T22:57:00.004Z,99547.53
2023-01-19T23:02:01.564Z,99522.13
2023-01-19T23:07:02.988Z,99510.03
2023-01-19T23:12:04.629Z,99539.66
2023-01-19T23:17:06.192Z,99547.59
2023-01-19T23:22:07.643Z,99559.03
2023-01-19T23:27:09.406Z,99551.31
2023-01-19T23:32:10.740Z,99559.38
2023-01-19T23:37:12.362Z,99566.81
2023-01-19T23:42:13.733Z,99574.59
2023-01-19T23:47:15.086Z,99562.44
2023-01-19T23:52:16.418Z,99575.88
2023-01-19T23:57:17.901Z,99568.88
